Time;durP1;ratioP1;P1;durP2;ratioP2;P2;SDS_P1;SDS_P2;PMS_P1;PMS_P2;Temp;Humidity;BMP_temperature;BMP_pressure;BME280_temperature;BME280_humidity;BME280_pressure;Samples;Min_cycle;Max_cycle;Signal;HPM_P1;HPM_P2
2022/11/13 00:00:45;;;;;;;13.80;7.50;;;8.30;89.90;;;;;;5000145;28;20263;-62
2022/11/13 00:03:11;;;;;;;9.55;7.20;;;8.30;89.90;;;;;;5000814;28;20038;-63
2022/11/13 00:05:36;;;;;;;14.30;7.57;;;8.20;89.80;;;;;;5003993;28;20037;-61
2022/11/13 00:08:02;;;;;;;14.35;7.50;;;8.20;89.90;;;;;;5005713;28;20038;-61
2022/11/13 00:10:29;;;;;;;10.70;7.30;;;8.20;89.90;;;;;;4997531;28;20049;-62
2022/11/13 00:12:55;;;;;;;15.35;6.95;;;8.20;90.00;;;;;;5003322;28;20083;-61
2022/11/13 00:15:20;;;;;;;11.02;7.32;;;8.20;90.00;;;;;;5001741;28;20042;-63
2022/11/13 00:17:46;;;;;;;9.07;7.82;;;8.20;90.00;;;;;;5002459;28;20073;-61
2022/11/13 00:20:12;;;;;;;13.55;7.40;;;8.20;90.00;;;;;;5000294;28;20591;-62
2022/11/13 00:22:38;;;;;;;22.30;8.60;;;8.20;90.00;;;;;;5001614;28;20137;-63
2022/11/13 00:25:03;;;;;;;15.40;7.47;;;8.20;90.10;;;;;;5006252;28;20422;-63
2022/11/13 00:27:30;;;;;;;14.30;7.50;;;8.20;90.10;;;;;;5007602;28;20485;-63
2022/11/13 00:29:56;;;;;;;16.67;8.38;;;8.20;90.10;;;;;;5007948;28;20108;-62
2022/11/13 00:32:21;;;;;;;19.63;7.55;;;8.20;90.00;;;;;;5007215;28;20037;-60
2022/11/13 00:34:47;;;;;;;10.00;7.70;;;8.20;90.00;;;;;;5004656;28;20379;-62
2022/11/13 00:37:12;;;;;;;24.00;7.22;;;8.20;90.00;;;;;;5003005;28;20064;-61
2022/11/13 00:39:38;;;;;;;8.77;7.40;;;8.20;89.90;;;;;;5003041;28;20044;-63
2022/11/13 00:42:03;;;;;;;24.10;8.15;;;8.20;89.90;;;;;;4996507;28;20124;-62
2022/11/13 00:44:29;;;;;;;8.23;7.32;;;8.20;89.80;;;;;;5001954;28;20032;-62
2022/11/13 00:46:54;;;;;;;15.93;8.05;;;8.10;89.80;;;;;;5002710;28;20457;-63
2022/11/13 00:49:20;;;;;;;10.18;8.00;;;8.10;89.90;;;;;;5002959;28;20042;-63
2022/11/13 00:51:46;;;;;;;8.60;7.40;;;8.10;89.90;;;;;;4999991;28;20041;-63
2022/11/13 00:54:11;;;;;;;16.85;8.32;;;8.10;90.00;;;;;;5005427;28;20034;-61
2022/11/13 00:56:37;;;;;;;12.65;7.97;;;8.10;90.00;;;;;;5005489;28;20045;-62
2022/11/13 00:59:02;;;;;;;15.15;8.45;;;8.10;90.00;;;;;;5004202;28;20488;-63
2022/11/13 01:01:28;;;;;;;9.85;8.07;;;8.10;90.00;;;;;;5003072;28;20057;-63
2022/11/13 01:03:54;;;;;;;10.02;7.82;;;8.10;90.00;;;;;;5003589;28;20041;-62
2022/11/13 01:06:23;;;;;;;9.38;7.68;;;8.10;90.00;;;;;;5001908;28;20041;-62
2022/11/13 01:08:49;;;;;;;11.05;7.70;;;8.10;90.00;;;;;;5002461;28;20172;-63
2022/11/13 01:11:19;;;;;;;17.55;8.50;;;8.10;89.90;;;;;;4996078;28;20607;-62
2022/11/13 01:13:47;;;;;;;9.32;8.10;;;8.10;90.00;;;;;;5000668;28;20053;-61
2022/11/13 01:16:14;;;;;;;10.00;7.85;;;8.10;90.00;;;;;;4998037;28;20037;-61
2022/11/13 01:18:41;;;;;;;10.02;8.05;;;8.10;90.00;;;;;;5000750;28;20034;-62
2022/11/13 01:21:12;;;;;;;13.23;8.57;;;8.10;90.00;;;;;;5000249;28;20042;-62
2022/11/13 01:23:38;;;;;;;10.45;7.97;;;8.10;90.00;;;;;;5001895;28;20044;-62
2022/11/13 01:26:12;;;;;;;12.32;8.45;;;8.00;90.00;;;;;;4999581;28;20638;-62
2022/11/13 01:28:38;;;;;;;17.27;8.15;;;8.00;90.00;;;;;;5002330;28;20048;-63
2022/11/13 01:31:06;;;;;;;15.48;8.65;;;8.10;90.10;;;;;;5001860;28;20117;-63
2022/11/13 01:33:32;;;;;;;21.15;8.60;;;8.10;90.20;;;;;;5002146;28;20038;-62
2022/11/13 01:36:04;;;;;;;46.30;8.82;;;8.00;90.10;;;;;;5001348;28;20040;-62
2022/11/13 01:38:30;;;;;;;39.00;8.68;;;8.10;90.10;;;;;;5001282;28;20096;-63
2022/11/13 01:40:56;;;;;;;20.88;8.02;;;8.10;90.00;;;;;;5003233;28;20450;-63
2022/11/13 01:43:24;;;;;;;12.82;8.25;;;8.10;90.00;;;;;;5004011;28;20563;-63
2022/11/13 01:45:58;;;;;;;22.63;8.30;;;8.10;90.00;;;;;;5002897;28;20041;-62
2022/11/13 01:48:30;;;;;;;36.25;8.50;;;8.10;90.10;;;;;;5002840;28;20069;-63
2022/11/13 01:50:55;;;;;;;20.08;8.30;;;8.00;90.10;;;;;;5000237;28;20061;-62
2022/11/13 01:53:21;;;;;;;11.82;8.23;;;8.10;90.10;;;;;;5000976;28;20501;-62
2022/11/13 01:55:47;;;;;;;11.90;8.02;;;8.00;90.00;;;;;;5002050;28;20521;-61
2022/11/13 01:58:13;;;;;;;21.25;8.38;;;8.00;90.10;;;;;;5001462;28;20052;-63
2022/11/13 02:00:40;;;;;;;11.52;7.75;;;8.00;90.20;;;;;;5001655;28;20168;-63
2022/11/13 02:03:06;;;;;;;13.65;7.50;;;8.00;90.20;;;;;;4996629;28;20100;-62
2022/11/13 02:05:31;;;;;;;26.17;8.40;;;8.00;90.20;;;;;;5001222;28;20121;-60
2022/11/13 02:07:57;;;;;;;25.80;8.02;;;8.00;90.20;;;;;;5000842;28;20540;-60
2022/11/13 02:10:23;;;;;;;10.25;7.40;;;8.00;90.20;;;;;;5002759;28;20053;-62
2022/11/13 02:12:50;;;;;;;9.60;7.72;;;8.00;90.20;;;;;;4997280;28;20045;-62
2022/11/13 02:15:19;;;;;;;9.80;7.65;;;8.00;90.20;;;;;;4998879;28;20395;-62
2022/11/13 02:17:49;;;;;;;9.63;7.68;;;8.00;90.20;;;;;;4999887;28;20042;-62
2022/11/13 02:20:15;;;;;;;11.10;7.75;;;8.00;90.20;;;;;;4997858;28;20038;-62
2022/11/13 02:22:54;;;;;;;12.40;8.15;;;8.00;90.20;;;;;;5007133;28;20084;-61
2022/11/13 02:25:20;;;;;;;14.70;8.20;;;8.00;90.20;;;;;;5009137;28;20030;-63
2022/11/13 02:27:48;;;;;;;10.85;7.57;;;8.00;90.20;;;;;;5008855;28;20627;-63
2022/11/13 02:30:20;;;;;;;10.00;7.97;;;8.00;90.10;;;;;;5008545;28;20057;-62
2022/11/13 02:32:48;;;;;;;11.73;7.40;;;8.00;90.10;;;;;;5008366;28;20042;-63
2022/11/13 02:35:18;;;;;;;12.77;7.93;;;8.00;90.20;;;;;;5006717;28;20033;-63
2022/11/13 02:37:43;;;;;;;8.18;6.97;;;8.00;90.10;;;;;;5006565;28;20404;-63
2022/11/13 02:40:09;;;;;;;8.73;7.18;;;8.00;90.10;;;;;;5004468;28;20037;-61
2022/11/13 02:42:35;;;;;;;8.43;7.07;;;8.00;90.20;;;;;;5006208;28;20044;-62
2022/11/13 02:45:01;;;;;;;9.90;8.27;;;8.00;90.20;;;;;;5005595;28;20120;-62
2022/11/13 02:47:27;;;;;;;10.05;7.40;;;8.00;90.30;;;;;;5003517;28;20563;-63
2022/11/13 02:49:53;;;;;;;24.05;7.75;;;8.00;90.20;;;;;;5005883;28;20064;-63
2022/11/13 02:52:18;;;;;;;21.25;7.30;;;8.00;90.20;;;;;;5005481;28;20058;-61
2022/11/13 02:54:44;;;;;;;31.52;7.65;;;7.90;90.10;;;;;;5004009;28;20022;-62
2022/11/13 02:57:09;;;;;;;22.55;7.05;;;7.90;90.10;;;;;;5004233;28;20045;-63
2022/11/13 02:59:35;;;;;;;17.85;7.35;;;7.90;90.10;;;;;;5006990;28;20108;-62
2022/11/13 03:02:00;;;;;;;57.88;8.48;;;7.90;90.10;;;;;;5002887;28;20558;-62
2022/11/13 03:04:26;;;;;;;21.25;7.10;;;7.90;90.10;;;;;;5003583;28;20034;-63
2022/11/13 03:06:52;;;;;;;21.15;7.63;;;7.80;90.10;;;;;;5004741;28;20038;-63
2022/11/13 03:09:17;;;;;;;27.58;7.13;;;7.80;90.20;;;;;;5006799;28;20041;-60
2022/11/13 03:11:43;;;;;;;15.52;7.03;;;7.80;90.20;;;;;;5000630;28;20042;-62
2022/11/13 03:14:09;;;;;;;23.45;7.53;;;7.70;90.20;;;;;;5003863;28;20030;-63
2022/11/13 03:16:35;;;;;;;33.50;7.45;;;7.70;90.30;;;;;;5002062;28;20042;-63
2022/11/13 03:19:01;;;;;;;38.88;7.63;;;7.70;90.40;;;;;;5006563;28;20044;-63
2022/11/13 03:21:27;;;;;;;19.38;7.13;;;7.70;90.30;;;;;;5003866;28;20460;-63
2022/11/13 03:23:53;;;;;;;36.25;8.13;;;7.70;90.40;;;;;;5004545;28;20030;-61
2022/11/13 03:26:19;;;;;;;30.27;7.90;;;7.70;90.40;;;;;;4999681;28;20034;-62
2022/11/13 03:28:45;;;;;;;22.60;7.30;;;7.70;90.40;;;;;;5004618;28;20125;-63
2022/11/13 03:31:11;;;;;;;16.50;7.22;;;7.70;90.40;;;;;;5002406;28;20040;-63
2022/11/13 03:33:37;;;;;;;18.58;6.85;;;7.70;90.40;;;;;;5002350;28;20085;-63
2022/11/13 03:36:03;;;;;;;14.32;7.32;;;7.80;90.40;;;;;;5005593;28;20034;-63
2022/11/13 03:38:28;;;;;;;39.88;7.43;;;7.70;90.40;;;;;;5001110;28;21198;-63
2022/11/13 03:40:54;;;;;;;32.65;7.32;;;7.80;90.40;;;;;;5004532;28;20389;-62
2022/11/13 03:43:19;;;;;;;18.67;7.25;;;7.80;90.40;;;;;;5002897;28;20029;-62
2022/11/13 03:45:46;;;;;;;13.38;6.75;;;7.80;90.30;;;;;;5001827;28;20040;-61
2022/11/13 03:48:14;;;;;;;14.95;6.70;;;7.80;90.30;;;;;;5002079;28;20045;-63
2022/11/13 03:50:42;;;;;;;34.95;8.10;;;7.80;90.40;;;;;;5001690;28;21829;-63
2022/11/13 03:53:08;;;;;;;14.60;7.03;;;7.80;90.40;;;;;;5000382;28;20041;-60
2022/11/13 03:55:34;;;;;;;10.43;7.28;;;7.80;90.30;;;;;;5002012;28;20285;-62
2022/11/13 03:57:59;;;;;;;16.48;6.95;;;7.80;90.30;;;;;;5001135;28;20034;-63
2022/11/13 04:00:25;;;;;;;8.52;6.93;;;7.80;90.30;;;;;;5003284;28;20034;-63
2022/11/13 04:02:50;;;;;;;9.10;6.97;;;7.80;90.30;;;;;;4998440;28;20118;-63
2022/11/13 04:05:16;;;;;;;9.90;6.40;;;7.70;90.30;;;;;;5016029;28;20034;-63
2022/11/13 04:07:41;;;;;;;8.00;6.50;;;7.70;90.20;;;;;;5000865;28;20434;-64
2022/11/13 04:10:07;;;;;;;12.95;6.75;;;7.80;90.20;;;;;;5003819;28;20418;-61
2022/11/13 04:12:33;;;;;;;15.52;7.72;;;7.70;90.20;;;;;;4997207;28;20073;-63
2022/11/13 04:14:58;;;;;;;23.02;6.85;;;7.70;90.20;;;;;;5003483;28;20057;-61
2022/11/13 04:17:24;;;;;;;13.77;6.10;;;7.70;90.20;;;;;;5005398;28;20470;-62
2022/11/13 04:19:49;;;;;;;15.27;6.40;;;7.70;90.20;;;;;;5005626;28;20490;-63
2022/11/13 04:22:15;;;;;;;13.27;6.22;;;7.70;90.20;;;;;;5002550;28;20413;-61
2022/11/13 04:24:41;;;;;;;10.93;6.10;;;7.70;90.20;;;;;;5003169;28;20038;-61
2022/11/13 04:27:06;;;;;;;18.90;7.22;;;7.70;90.20;;;;;;5008103;28;20037;-62
2022/11/13 04:29:32;;;;;;;12.98;6.88;;;7.70;90.20;;;;;;5006925;28;20208;-63
2022/11/13 04:31:57;;;;;;;17.90;7.03;;;7.60;90.20;;;;;;5007156;28;20044;-62
2022/11/13 04:34:23;;;;;;;62.53;7.97;;;7.60;90.20;;;;;;5007033;28;20026;-62
2022/11/13 04:36:48;;;;;;;21.42;6.63;;;7.60;90.10;;;;;;5003887;28;20393;-62
2022/11/13 04:39:14;;;;;;;38.70;6.78;;;7.60;90.20;;;;;;5003585;28;20124;-63
2022/11/13 04:44:23;;;;;;;24.17;6.75;;;7.60;90.20;;;;;;4999568;28;20037;-63
2022/11/13 04:46:49;;;;;;;13.15;6.53;;;7.60;90.30;;;;;;5002781;28;20037;-63
2022/11/13 04:49:14;;;;;;;36.85;7.65;;;7.60;90.20;;;;;;4999602;28;20026;-63
2022/11/13 04:51:40;;;;;;;12.38;6.75;;;7.60;90.20;;;;;;4999684;28;20037;-61
2022/11/13 04:54:05;;;;;;;37.60;7.20;;;7.60;90.20;;;;;;4999207;28;20113;-62
2022/11/13 04:56:31;;;;;;;15.25;6.55;;;7.50;90.20;;;;;;5001528;28;20030;-63
2022/11/13 04:58:57;;;;;;;15.18;6.07;;;7.60;90.20;;;;;;5001093;28;20398;-61
2022/11/13 05:01:22;;;;;;;12.93;6.30;;;7.50;90.20;;;;;;5000772;28;20044;-63
2022/11/13 05:03:48;;;;;;;17.33;6.68;;;7.50;90.20;;;;;;5002150;28;20042;-63
2022/11/13 05:06:13;;;;;;;39.60;7.38;;;7.50;90.20;;;;;;5003332;28;20496;-62
2022/11/13 05:08:39;;;;;;;43.40;7.57;;;7.50;90.30;;;;;;5002689;28;20034;-63
2022/11/13 05:11:05;;;;;;;13.77;6.63;;;7.50;90.20;;;;;;4997630;28;20418;-61
2022/11/13 05:13:33;;;;;;;38.10;6.97;;;7.50;90.20;;;;;;5003937;28;20573;-62
2022/11/13 05:16:04;;;;;;;12.95;6.65;;;7.50;90.20;;;;;;5002712;28;20395;-62
2022/11/13 05:18:30;;;;;;;51.58;7.55;;;7.50;90.20;;;;;;5001560;28;20092;-63
2022/11/13 05:20:56;;;;;;;19.15;6.72;;;7.40;90.10;;;;;;5002620;28;20030;-63
2022/11/13 05:23:22;;;;;;;46.38;7.00;;;7.40;90.10;;;;;;5000160;28;20026;-62
2022/11/13 05:25:48;;;;;;;10.50;6.47;;;7.40;90.00;;;;;;5002178;28;20057;-63
2022/11/13 05:28:13;;;;;;;16.58;7.07;;;7.30;90.00;;;;;;5002248;28;20116;-63
2022/11/13 05:30:39;;;;;;;28.40;7.70;;;7.30;90.10;;;;;;5000852;28;20042;-63
2022/11/13 05:33:04;;;;;;;20.08;6.93;;;7.30;90.20;;;;;;5000722;28;20042;-63
2022/11/13 05:35:30;;;;;;;20.75;7.20;;;7.30;90.20;;;;;;5001168;28;20045;-63
2022/11/13 05:38:00;;;;;;;10.80;6.85;;;7.20;90.20;;;;;;5003964;28;20038;-63
2022/11/13 05:40:26;;;;;;;9.57;6.53;;;7.20;90.30;;;;;;5004618;28;20041;-63
2022/11/13 05:42:55;;;;;;;8.95;6.93;;;7.30;90.30;;;;;;5005259;28;20449;-62
2022/11/13 05:45:21;;;;;;;19.75;7.15;;;7.20;90.30;;;;;;5005303;28;20038;-63
2022/11/13 05:47:46;;;;;;;14.27;7.07;;;7.30;90.20;;;;;;5005932;28;20041;-63
2022/11/13 05:50:12;;;;;;;13.40;7.03;;;7.30;90.30;;;;;;5004117;28;20038;-63
2022/11/13 05:52:38;;;;;;;10.13;7.28;;;7.30;90.30;;;;;;5003501;28;20046;-61
2022/11/13 05:55:04;;;;;;;7.88;6.38;;;7.30;90.20;;;;;;4998300;28;20064;-63
2022/11/13 05:57:30;;;;;;;17.08;7.10;;;7.30;90.20;;;;;;5002348;28;20077;-62
2022/11/13 05:59:55;;;;;;;8.55;6.75;;;7.20;90.20;;;;;;5005556;28;20458;-63
2022/11/13 06:02:21;;;;;;;9.40;6.88;;;7.30;90.20;;;;;;5008363;28;20498;-62
2022/11/13 06:04:48;;;;;;;10.18;7.05;;;7.20;90.20;;;;;;5007864;28;20037;-63
2022/11/13 06:07:13;;;;;;;12.90;7.28;;;7.20;90.20;;;;;;5009891;28;20405;-63
2022/11/13 06:09:39;;;;;;;8.65;6.68;;;7.30;90.20;;;;;;5009200;28;20038;-63
2022/11/13 06:12:05;;;;;;;7.93;6.63;;;7.20;90.10;;;;;;5007131;28;20026;-63
2022/11/13 06:14:30;;;;;;;18.40;7.93;;;7.20;90.10;;;;;;5009827;28;20030;-62
2022/11/13 06:16:56;;;;;;;33.70;9.25;;;7.20;90.10;;;;;;5010791;28;20037;-63
2022/11/13 06:19:22;;;;;;;23.58;8.80;;;7.10;90.00;;;;;;5010189;28;20044;-63
2022/11/13 06:21:47;;;;;;;10.05;7.72;;;7.10;90.00;;;;;;5009191;28;20053;-63
2022/11/13 06:24:13;;;;;;;11.98;7.63;;;7.10;90.40;;;;;;5010016;28;20046;-62
2022/11/13 06:26:39;;;;;;;10.70;8.07;;;7.10;90.10;;;;;;5007219;28;20108;-63
2022/11/13 06:29:06;;;;;;;8.82;7.20;;;7.10;90.10;;;;;;5009299;28;20034;-62
2022/11/13 06:31:34;;;;;;;9.23;7.47;;;7.10;90.20;;;;;;5009501;28;20038;-61
2022/11/13 06:34:01;;;;;;;10.25;7.68;;;7.00;90.30;;;;;;5007245;28;20903;-63
2022/11/13 06:36:32;;;;;;;36.47;8.93;;;7.00;90.30;;;;;;5007856;28;20045;-62
2022/11/13 06:38:58;;;;;;;11.80;8.15;;;7.00;90.20;;;;;;5008939;28;20505;-60
2022/11/13 06:41:30;;;;;;;13.93;8.40;;;7.00;90.10;;;;;;5007128;28;20064;-61
2022/11/13 06:43:56;;;;;;;12.73;8.40;;;7.10;90.20;;;;;;5008709;28;20124;-63
2022/11/13 06:46:24;;;;;;;13.73;8.43;;;7.00;90.10;;;;;;5006361;28;20084;-63
2022/11/13 06:48:50;;;;;;;15.18;8.85;;;7.10;90.20;;;;;;5008185;28;20172;-62
2022/11/13 06:51:22;;;;;;;11.82;8.82;;;7.10;90.20;;;;;;5007482;28;20038;-62
2022/11/13 06:53:48;;;;;;;15.15;8.90;;;7.10;90.10;;;;;;5007920;28;20046;-63
2022/11/13 06:56:14;;;;;;;9.52;7.85;;;7.10;90.10;;;;;;5008223;28;20038;-62
2022/11/13 06:58:40;;;;;;;8.65;7.43;;;7.00;90.00;;;;;;5006917;28;20407;-63
2022/11/13 07:01:08;;;;;;;9.20;6.82;;;7.00;90.00;;;;;;5007032;28;20040;-61
2022/11/13 07:03:34;;;;;;;8.75;7.10;;;7.10;90.00;;;;;;5008015;28;20045;-62
2022/11/13 07:06:08;;;;;;;10.00;7.22;;;7.00;89.80;;;;;;5008088;28;20060;-61
2022/11/13 07:08:35;;;;;;;9.32;7.28;;;7.00;89.80;;;;;;5006421;28;20037;-62
2022/11/13 07:11:00;;;;;;;11.52;7.68;;;6.90;89.90;;;;;;5002754;28;20033;-63
2022/11/13 07:13:27;;;;;;;13.05;8.60;;;6.90;90.00;;;;;;5008580;28;20517;-63
2022/11/13 07:15:53;;;;;;;18.77;9.18;;;6.90;90.00;;;;;;5008492;28;20124;-62
2022/11/13 07:18:21;;;;;;;17.35;9.50;;;6.90;90.00;;;;;;5005358;28;20481;-62
2022/11/13 07:20:47;;;;;;;12.27;8.88;;;6.90;90.00;;;;;;5006074;28;20068;-63
2022/11/13 07:23:12;;;;;;;15.30;8.63;;;6.90;90.00;;;;;;5007220;28;20053;-62
2022/11/13 07:25:38;;;;;;;14.88;9.18;;;6.90;90.00;;;;;;5006719;28;20049;-61
2022/11/13 07:28:04;;;;;;;13.63;9.48;;;6.90;90.00;;;;;;5006267;28;20037;-62
2022/11/13 07:30:29;;;;;;;13.57;9.45;;;6.90;90.00;;;;;;5005883;28;20037;-61
2022/11/13 07:32:55;;;;;;;15.63;9.20;;;6.90;90.00;;;;;;5006717;28;20042;-62
2022/11/13 07:35:20;;;;;;;13.95;8.75;;;6.90;90.00;;;;;;5007069;28;20041;-61
2022/11/13 07:37:46;;;;;;;10.80;8.52;;;6.80;90.00;;;;;;5008080;28;20512;-63
2022/11/13 07:40:12;;;;;;;10.02;7.82;;;6.80;90.00;;;;;;5006879;28;20042;-62
2022/11/13 07:42:38;;;;;;;11.07;8.57;;;6.90;90.10;;;;;;5006649;28;20034;-61
2022/11/13 07:45:04;;;;;;;9.85;8.05;;;6.90;90.20;;;;;;5006796;28;20034;-62
2022/11/13 07:47:30;;;;;;;10.65;8.02;;;6.90;90.20;;;;;;5006286;28;20125;-62
2022/11/13 07:49:55;;;;;;;11.63;8.20;;;6.90;90.30;;;;;;5008898;28;20133;-63
2022/11/13 07:52:21;;;;;;;11.38;7.97;;;6.90;90.20;;;;;;5006146;28;20406;-61
2022/11/13 07:54:46;;;;;;;12.05;7.95;;;6.90;90.20;;;;;;5006387;28;20026;-63
2022/11/13 07:57:13;;;;;;;12.07;8.63;;;7.00;90.20;;;;;;5006209;28;20056;-62
2022/11/13 07:59:38;;;;;;;14.05;9.68;;;6.90;90.10;;;;;;5006841;28;20038;-63
2022/11/13 08:02:05;;;;;;;12.45;9.20;;;6.90;90.10;;;;;;4999783;28;20048;-62
2022/11/13 08:04:30;;;;;;;14.05;10.18;;;7.00;90.10;;;;;;5003606;28;20038;-63
2022/11/13 08:06:56;;;;;;;15.20;10.70;;;7.00;90.10;;;;;;5006065;28;20099;-62
2022/11/13 08:09:22;;;;;;;14.23;9.82;;;6.90;90.00;;;;;;5007719;28;20113;-62
2022/11/13 08:11:47;;;;;;;14.23;9.85;;;7.00;90.00;;;;;;5005180;28;20038;-63
2022/11/13 08:14:13;;;;;;;12.70;10.02;;;7.00;90.10;;;;;;5008980;28;20088;-63
2022/11/13 08:16:39;;;;;;;13.45;10.18;;;7.00;90.10;;;;;;5008548;28;20451;-63
2022/11/13 08:19:04;;;;;;;12.85;9.43;;;7.00;90.10;;;;;;5008185;28;20049;-63
2022/11/13 08:21:30;;;;;;;16.33;10.15;;;7.00;90.00;;;;;;5008434;28;20145;-61
2022/11/13 08:23:55;;;;;;;12.40;9.13;;;7.00;90.10;;;;;;5008627;28;20041;-61
2022/11/13 08:26:22;;;;;;;15.27;9.90;;;7.00;90.10;;;;;;5007853;28;20109;-63
2022/11/13 08:28:48;;;;;;;16.02;11.05;;;7.00;90.10;;;;;;5006251;28;20097;-63
2022/11/13 08:31:15;;;;;;;13.20;10.02;;;7.00;90.10;;;;;;5006629;28;20182;-62
2022/11/13 08:33:41;;;;;;;14.48;10.60;;;7.00;90.20;;;;;;5005499;28;20103;-63
2022/11/13 08:36:08;;;;;;;15.18;10.93;;;7.00;90.20;;;;;;5007158;28;20072;-61
2022/11/13 08:38:33;;;;;;;16.48;11.63;;;7.00;90.30;;;;;;5005027;28;20041;-63
2022/11/13 08:41:00;;;;;;;16.17;11.18;;;7.00;90.30;;;;;;5007634;28;20037;-62
2022/11/13 08:43:26;;;;;;;17.02;12.13;;;7.00;90.30;;;;;;5006132;28;20091;-63
2022/11/13 08:45:51;;;;;;;19.55;12.93;;;7.10;90.30;;;;;;5003730;28;20437;-63
2022/11/13 08:48:17;;;;;;;18.58;12.65;;;7.10;90.20;;;;;;5007300;28;20567;-62
2022/11/13 08:50:43;;;;;;;17.27;12.10;;;7.10;90.20;;;;;;5005641;28;20145;-62
2022/11/13 08:53:09;;;;;;;17.15;12.20;;;7.10;90.20;;;;;;5005987;28;20056;-62
2022/11/13 08:55:34;;;;;;;15.57;11.43;;;7.10;90.20;;;;;;5006598;28;20034;-62
2022/11/13 08:58:02;;;;;;;15.75;10.90;;;7.20;90.20;;;;;;5006603;28;20540;-61
2022/11/13 09:00:29;;;;;;;14.88;10.68;;;7.20;90.60;;;;;;5005221;28;20049;-63
2022/11/13 09:02:56;;;;;;;16.67;11.55;;;7.20;90.20;;;;;;5006205;28;20502;-63
2022/11/13 09:05:22;;;;;;;16.45;11.13;;;7.20;90.20;;;;;;5007156;28;20041;-62
2022/11/13 09:07:48;;;;;;;14.63;10.77;;;7.20;90.20;;;;;;5005940;28;21845;-63
2022/11/13 09:10:15;;;;;;;14.70;10.18;;;7.30;90.20;;;;;;5002273;28;20080;-63
2022/11/13 09:12:40;;;;;;;14.50;9.60;;;7.30;90.20;;;;;;5001066;28;20056;-64
2022/11/13 09:15:06;;;;;;;16.35;11.10;;;7.30;90.10;;;;;;5005988;28;20136;-63
2022/11/13 09:17:32;;;;;;;13.73;10.45;;;7.30;90.00;;;;;;5005935;28;20041;-61
2022/11/13 09:19:57;;;;;;;15.70;10.75;;;7.30;90.00;;;;;;5005770;28;20033;-61
2022/11/13 09:22:23;;;;;;;16.38;11.73;;;7.40;90.00;;;;;;5006100;28;20042;-63
2022/11/13 09:24:48;;;;;;;14.93;11.23;;;7.40;90.00;;;;;;5006224;28;20065;-64
2022/11/13 09:27:14;;;;;;;15.38;11.02;;;7.40;90.00;;;;;;5006554;28;20034;-63
2022/11/13 09:29:40;;;;;;;15.13;10.82;;;7.40;90.00;;;;;;5005947;28;20037;-61
2022/11/13 09:32:05;;;;;;;16.80;11.48;;;7.40;90.00;;;;;;5005859;28;20397;-62
2022/11/13 09:34:32;;;;;;;15.73;10.52;;;7.40;90.00;;;;;;5007382;28;20076;-63
2022/11/13 09:36:58;;;;;;;15.32;11.05;;;7.40;90.00;;;;;;5007919;28;20034;-62
2022/11/13 09:39:24;;;;;;;17.38;12.05;;;7.50;90.00;;;;;;5007586;28;20136;-63
2022/11/13 09:42:16;;;;;;;15.95;11.80;;;7.50;90.00;;;;;;5007911;28;20117;-63
2022/11/13 09:44:54;;;;;;;16.05;11.82;;;7.50;90.00;;;;;;4998451;28;20050;-61
2022/11/13 09:47:30;;;;;;;18.52;13.60;;;7.50;90.00;;;;;;5000602;28;20120;-62
2022/11/13 09:50:01;;;;;;;15.65;10.82;;;7.60;89.90;;;;;;5000887;28;20399;-61
2022/11/13 09:52:36;;;;;;;13.30;9.85;;;7.50;89.70;;;;;;4999849;28;20072;-62
2022/11/13 09:55:03;;;;;;;13.23;9.80;;;7.60;89.90;;;;;;5002401;28;20049;-63
2022/11/13 09:57:40;;;;;;;14.20;10.30;;;7.60;90.00;;;;;;4999960;28;20033;-63
2022/11/13 10:00:10;;;;;;;13.77;10.15;;;7.60;90.00;;;;;;5001088;28;20042;-63
2022/11/13 10:03:10;;;;;;;14.15;10.00;;;7.70;90.00;;;;;;4998765;28;20257;-62
2022/11/13 10:05:53;;;;;;;11.23;8.82;;;7.70;90.10;;;;;;5001852;28;20038;-60
2022/11/13 10:08:21;;;;;;;14.32;10.70;;;7.70;90.10;;;;;;5000147;28;20386;-61
2022/11/13 10:11:00;;;;;;;15.27;11.63;;;7.80;90.00;;;;;;4998915;28;20401;-62
2022/11/13 10:13:31;;;;;;;14.60;11.18;;;7.80;89.90;;;;;;4999717;28;20412;-62
2022/11/13 10:16:08;;;;;;;15.80;11.95;;;7.80;89.80;;;;;;5000058;28;20037;-61
2022/11/13 10:18:36;;;;;;;14.60;11.07;;;7.80;89.60;;;;;;4999136;28;20147;-62
2022/11/13 10:21:30;;;;;;;15.75;11.07;;;7.90;89.50;;;;;;4999472;28;20044;-61
2022/11/13 10:24:01;;;;;;;15.18;10.88;;;7.90;88.80;;;;;;5001986;28;20038;-62
2022/11/13 10:26:28;;;;;;;13.20;10.25;;;7.90;89.00;;;;;;5003878;28;20026;-62
2022/11/13 10:29:16;;;;;;;15.15;10.30;;;7.90;89.00;;;;;;5001029;28;20046;-63
2022/11/13 10:31:49;;;;;;;13.00;9.98;;;7.90;89.10;;;;;;5000461;28;20030;-63
2022/11/13 10:34:15;;;;;;;13.07;10.32;;;7.90;89.40;;;;;;5002165;28;20092;-62
2022/11/13 10:36:59;;;;;;;12.50;9.88;;;7.90;89.30;;;;;;5005294;28;20034;-63
2022/11/13 10:39:24;;;;;;;11.13;8.85;;;8.00;88.80;;;;;;5005951;28;20069;-62
2022/11/13 10:41:52;;;;;;;11.73;8.60;;;8.00;88.90;;;;;;5005684;28;20080;-62
2022/11/13 10:44:31;;;;;;;11.95;9.10;;;8.00;88.80;;;;;;5007340;28;20042;-63
2022/11/13 10:47:17;;;;;;;11.02;8.70;;;8.00;88.60;;;;;;5007445;28;20570;-63
2022/11/13 10:49:43;;;;;;;13.07;8.57;;;8.00;88.50;;;;;;5008952;28;20096;-62
2022/11/13 10:52:19;;;;;;;10.55;8.52;;;8.00;88.80;;;;;;5007842;28;20053;-63
2022/11/13 10:54:44;;;;;;;10.90;8.57;;;8.00;88.50;;;;;;5008208;28;20104;-62
2022/11/13 10:57:29;;;;;;;12.02;9.10;;;8.00;88.70;;;;;;5009358;28;20566;-61
2022/11/13 10:59:55;;;;;;;10.77;9.23;;;8.00;88.50;;;;;;5003867;28;20042;-63
2022/11/13 11:02:23;;;;;;;11.65;9.23;;;8.10;88.70;;;;;;5004631;28;20057;-62
2022/11/13 11:04:48;;;;;;;10.80;8.52;;;8.10;88.50;;;;;;5004262;28;20230;-62
2022/11/13 11:07:20;;;;;;;12.07;9.07;;;8.10;88.50;;;;;;5004813;28;20046;-62
2022/11/13 11:09:46;;;;;;;10.65;8.20;;;8.10;88.50;;;;;;5003292;28;20121;-61
2022/11/13 11:12:17;;;;;;;9.63;8.57;;;8.10;88.60;;;;;;5003117;28;20038;-61
2022/11/13 11:14:52;;;;;;;10.73;7.88;;;8.10;88.70;;;;;;5007639;28;20042;-62
2022/11/13 11:17:20;;;;;;;11.77;8.13;;;8.20;88.60;;;;;;5008779;28;20033;-60
2022/11/13 11:19:54;;;;;;;8.73;7.35;;;8.20;88.70;;;;;;5008217;28;20549;-62
2022/11/13 11:22:25;;;;;;;10.43;7.93;;;8.30;88.70;;;;;;5007530;28;20034;-61
2022/11/13 11:25:14;;;;;;;8.50;7.53;;;8.30;88.50;;;;;;5007014;28;20091;-61
2022/11/13 11:27:51;;;;;;;8.40;7.18;;;8.40;88.10;;;;;;5008388;28;20065;-59
2022/11/13 11:30:27;;;;;;;9.35;8.07;;;8.40;88.30;;;;;;5007935;28;20038;-62
2022/11/13 11:33:24;;;;;;;8.80;7.80;;;8.40;88.00;;;;;;5007367;28;20038;-62
2022/11/13 11:35:58;;;;;;;10.85;7.93;;;8.40;87.70;;;;;;5001830;28;20034;-60
2022/11/13 11:38:26;;;;;;;;;;;8.40;87.90;;;;;;5008140;28;20041;-60
2022/11/13 11:41:01;;;;;;;8.77;7.28;;;8.50;87.60;;;;;;5007393;28;19948;-61
2022/11/13 11:43:38;;;;;;;8.38;6.97;;;8.50;87.80;;;;;;4998262;28;20030;-62
2022/11/13 11:46:04;;;;;;;8.48;7.18;;;8.60;87.90;;;;;;5004074;28;20517;-61
2022/11/13 11:48:31;;;;;;;7.80;6.97;;;8.60;87.80;;;;;;5004307;28;20030;-62
2022/11/13 11:51:23;;;;;;;8.43;7.47;;;8.60;87.60;;;;;;5004946;28;20037;-61
2022/11/13 11:54:00;;;;;;;8.02;7.18;;;8.60;87.30;;;;;;5005829;28;20036;-61
2022/11/13 11:56:25;;;;;;;8.00;6.85;;;8.70;87.30;;;;;;5005368;28;20041;-62
2022/11/13 11:59:16;;;;;;;7.95;6.93;;;8.70;87.40;;;;;;5005423;28;20422;-61
2022/11/13 12:02:11;;;;;;;8.80;7.57;;;8.70;86.90;;;;;;5007220;28;20045;-62
2022/11/13 12:05:03;;;;;;;7.37;6.60;;;8.70;86.40;;;;;;5006236;28;20049;-61
2022/11/13 12:07:46;;;;;;;7.53;6.68;;;8.80;86.00;;;;;;5006831;28;20050;-59
2022/11/13 12:10:30;;;;;;;8.15;7.22;;;8.70;86.00;;;;;;5005543;28;20052;-61
2022/11/13 12:13:27;;;;;;;7.78;6.95;;;8.70;85.70;;;;;;5004568;28;20030;-62
2022/11/13 12:16:11;;;;;;;9.07;7.20;;;8.60;85.60;;;;;;5005792;28;20038;-60
2022/11/13 12:18:55;;;;;;;7.97;7.18;;;8.60;85.90;;;;;;5007346;28;20042;-60
2022/11/13 12:21:23;;;;;;;8.30;7.25;;;8.50;85.70;;;;;;5006808;28;20037;-60
2022/11/13 12:23:54;;;;;;;8.95;7.35;;;8.40;86.00;;;;;;5005531;28;20034;-60
2022/11/13 12:27:05;;;;;;;10.10;8.13;;;8.40;86.20;;;;;;5006769;28;20117;-61
2022/11/13 12:29:51;;;;;;;8.77;7.60;;;8.30;86.60;;;;;;5007407;28;20057;-61
2022/11/13 12:32:23;;;;;;;9.35;7.32;;;8.30;86.90;;;;;;4994865;28;20034;-62
2022/11/13 12:35:01;;;;;;;7.88;7.07;;;8.30;87.10;;;;;;5003629;28;20068;-62
2022/11/13 12:37:32;;;;;;;9.15;8.13;;;8.30;87.20;;;;;;5003324;28;20293;-60
2022/11/13 12:40:21;;;;;;;9.93;8.13;;;8.30;87.30;;;;;;4999877;28;20041;-62
2022/11/13 12:43:01;;;;;;;8.65;7.63;;;8.40;87.10;;;;;;5006673;28;20385;-61
2022/11/13 12:45:36;;;;;;;8.70;7.72;;;8.40;87.30;;;;;;5000889;28;20096;-62
2022/11/13 12:48:24;;;;;;;8.52;7.57;;;8.40;87.40;;;;;;5002959;28;20417;-61
2022/11/13 12:51:06;;;;;;;9.45;7.75;;;8.50;87.20;;;;;;5004335;28;20036;-62
2022/11/13 12:53:52;;;;;;;9.93;8.27;;;8.50;86.90;;;;;;5003596;28;20047;-61
2022/11/13 12:56:25;;;;;;;8.63;7.55;;;8.60;86.70;;;;;;5003677;28;20068;-62
2022/11/13 12:59:29;;;;;;;9.15;8.02;;;8.60;86.90;;;;;;5003894;28;20172;-62